createdAt,value
2022-09-21T00:00:51.807Z,4.20
2022-09-21T00:03:20.044Z,4.95
2022-09-21T00:05:48.000Z,3.88
2022-09-21T00:08:17.512Z,4.50
2022-09-21T00:10:51.154Z,4.63
2022-09-21T00:13:19.660Z,4.95
2022-09-21T00:15:47.694Z,4.68
2022-09-21T00:18:15.679Z,5.03
2022-09-21T00:20:44.455Z,5.45
2022-09-21T00:23:12.441Z,5.78
2022-09-21T00:25:41.797Z,5.30
2022-09-21T00:28:09.832Z,4.60
2022-09-21T00:30:39.134Z,4.00
2022-09-21T00:33:07.204Z,3.70
2022-09-21T00:35:35.456Z,3.90
2022-09-21T00:38:04.252Z,3.97
2022-09-21T00:40:33.436Z,4.15
2022-09-21T00:43:18.257Z,3.78
2022-09-21T00:45:49.857Z,4.07
2022-09-21T00:48:18.208Z,5.05
2022-09-21T00:50:53.767Z,5.80
2022-09-21T00:53:22.492Z,4.38
2022-09-21T00:55:56.147Z,3.95
2022-09-21T00:58:32.250Z,3.72
2022-09-21T01:01:02.143Z,3.95
2022-09-21T01:03:32.417Z,3.88
2022-09-21T01:06:00.401Z,3.78
2022-09-21T01:08:29.973Z,3.53
2022-09-21T01:11:18.437Z,4.50
2022-09-21T01:14:02.210Z,4.22
2022-09-21T01:16:39.221Z,3.75
2022-09-21T01:19:23.738Z,4.28
2022-09-21T01:22:01.793Z,4.82
2022-09-21T01:24:45.865Z,6.45
2022-09-21T01:27:52.471Z,6.72
2022-09-21T01:30:23.773Z,6.07
2022-09-21T01:32:58.012Z,6.38
2022-09-21T01:35:29.660Z,6.18
2022-09-21T01:38:01.830Z,5.32
2022-09-21T01:40:35.545Z,5.38
2022-09-21T01:43:06.962Z,5.82
2022-09-21T01:45:40.652Z,6.15
2022-09-21T01:48:10.830Z,5.70
2022-09-21T01:50:43.377Z,6.05
2022-09-21T01:53:16.921Z,6.70
2022-09-21T01:55:50.163Z,5.72
2022-09-21T01:58:25.123Z,7.25
2022-09-21T02:00:58.004Z,6.80
2022-09-21T02:03:30.507Z,7.47
2022-09-21T02:05:59.337Z,7.90
2022-09-21T02:08:27.764Z,8.45
2022-09-21T02:10:56.763Z,8.65
2022-09-21T02:13:28.082Z,8.85
2022-09-21T02:16:10.656Z,8.25
2022-09-21T02:18:48.657Z,8.93
2022-09-21T02:21:24.120Z,9.20
2022-09-21T02:24:00.119Z,6.60
2022-09-21T02:26:34.983Z,6.30
2022-09-21T02:29:12.214Z,6.32
2022-09-21T02:31:50.090Z,9.63
2022-09-21T02:34:23.112Z,13.52
2022-09-21T02:36:56.881Z,11.75
2022-09-21T02:39:33.099Z,8.85
2022-09-21T02:42:07.570Z,11.73
2022-09-21T02:44:40.480Z,8.00
2022-09-21T02:47:16.619Z,7.78
2022-09-21T02:49:51.253Z,7.38
2022-09-21T02:52:20.600Z,8.38
2022-09-21T02:54:52.079Z,7.20
2022-09-21T02:57:22.767Z,7.38
2022-09-21T02:59:51.438Z,7.03
2022-09-21T03:02:20.797Z,8.10
2022-09-21T03:04:50.098Z,8.52
2022-09-21T03:07:18.641Z,9.02
2022-09-21T03:09:46.695Z,8.40
2022-09-21T03:12:14.764Z,10.40
2022-09-21T03:14:43.377Z,8.35
2022-09-21T03:17:11.387Z,5.32
2022-09-21T03:19:40.736Z,16.80
2022-09-21T03:22:09.064Z,9.77
2022-09-21T03:24:49.019Z,7.72
2022-09-21T03:27:18.912Z,7.63
2022-09-21T03:29:47.126Z,6.63
2022-09-21T03:32:15.671Z,6.90
2022-09-21T03:34:45.062Z,6.82
2022-09-21T03:37:13.247Z,8.68
2022-09-21T03:39:41.376Z,8.95
2022-09-21T03:42:10.552Z,9.90
2022-09-21T03:44:38.539Z,11.80
2022-09-21T03:47:07.473Z,7.13
2022-09-21T03:49:35.963Z,6.40
2022-09-21T03:52:05.829Z,10.02
2022-09-21T03:54:33.831Z,8.68
2022-09-21T03:57:01.816Z,8.32
2022-09-21T03:59:29.898Z,8.25
2022-09-21T04:01:57.921Z,5.70
2022-09-21T04:04:25.885Z,9.38
2022-09-21T04:06:53.929Z,11.20
2022-09-21T04:09:23.416Z,9.88
2022-09-21T04:11:52.165Z,6.53
2022-09-21T04:14:20.315Z,9.18
2022-09-21T04:16:48.431Z,7.75
2022-09-21T04:19:16.919Z,5.25
2022-09-21T04:21:45.063Z,8.13
2022-09-21T04:24:13.097Z,7.65
2022-09-21T04:26:42.506Z,11.13
2022-09-21T04:29:10.990Z,10.10
2022-09-21T04:31:39.532Z,8.35
2022-09-21T04:34:07.973Z,9.43
2022-09-21T04:36:36.925Z,9.73
2022-09-21T04:39:06.235Z,8.63
2022-09-21T04:41:34.678Z,12.38
2022-09-21T04:44:04.333Z,7.65
2022-09-21T04:46:32.421Z,6.82
2022-09-21T04:49:00.806Z,6.93
2022-09-21T04:51:28.835Z,7.13
2022-09-21T04:53:56.934Z,6.07
2022-09-21T04:56:24.982Z,9.07
2022-09-21T04:58:53.053Z,9.05
2022-09-21T05:01:22.523Z,10.30
2022-09-21T05:03:50.859Z,8.43
2022-09-21T05:06:19.000Z,8.20
2022-09-21T05:09:04.483Z,10.25
2022-09-21T05:11:33.487Z,8.68
2022-09-21T05:14:02.140Z,7.97
2022-09-21T05:16:31.695Z,7.72
2022-09-21T05:18:59.942Z,10.20
2022-09-21T05:21:30.272Z,8.70
2022-09-21T05:23:58.500Z,9.45
2022-09-21T05:26:26.592Z,8.02
2022-09-21T05:28:55.327Z,7.53
2022-09-21T05:31:42.147Z,7.43
2022-09-21T05:34:28.005Z,6.88
2022-09-21T05:37:03.205Z,6.15
2022-09-21T05:39:31.869Z,4.97
2022-09-21T05:42:00.559Z,5.70
2022-09-21T05:44:29.722Z,6.82
2022-09-21T05:47:04.877Z,5.13
2022-09-21T05:49:46.940Z,6.60
2022-09-21T05:52:19.668Z,5.28
2022-09-21T05:54:58.128Z,7.38
2022-09-21T05:57:36.856Z,7.93
2022-09-21T06:00:13.878Z,7.85
2022-09-21T06:02:57.062Z,6.38
2022-09-21T06:05:25.817Z,6.15
2022-09-21T06:07:53.970Z,6.53
2022-09-21T06:10:22.008Z,7.03
2022-09-21T06:12:50.079Z,7.25
2022-09-21T06:15:18.405Z,8.18
2022-09-21T06:17:47.892Z,6.68
2022-09-21T06:20:16.075Z,11.07
2022-09-21T06:22:44.078Z,6.35
2022-09-21T06:25:12.147Z,5.95
2022-09-21T06:27:40.216Z,7.22
2022-09-21T06:30:09.239Z,7.10
2022-09-21T06:32:37.280Z,10.32
2022-09-21T06:35:07.635Z,9.82
2022-09-21T06:37:35.739Z,10.18
2022-09-21T06:40:04.170Z,8.52
2022-09-21T06:42:32.271Z,7.85
2022-09-21T06:45:00.359Z,13.13
2022-09-21T06:47:28.350Z,8.35
2022-09-21T06:49:56.402Z,6.90
2022-09-21T06:52:25.756Z,9.68
2022-09-21T06:54:53.763Z,7.03
2022-09-21T06:57:21.781Z,7.90
2022-09-21T06:59:49.834Z,8.68
2022-09-21T07:02:17.876Z,8.15
2022-09-21T07:04:45.934Z,6.75
2022-09-21T07:07:13.942Z,7.85
2022-09-21T07:12:34.595Z,5.65
2022-09-21T07:15:02.791Z,6.95
2022-09-21T07:17:33.122Z,5.72
2022-09-21T07:20:02.064Z,5.68
2022-09-21T07:22:30.338Z,6.85
2022-09-21T07:25:00.325Z,7.13
2022-09-21T07:27:31.073Z,4.93
2022-09-21T07:29:59.118Z,6.80
2022-09-21T07:32:27.293Z,5.68
2022-09-21T07:34:57.120Z,5.00
2022-09-21T07:37:25.709Z,6.53
2022-09-21T07:39:53.922Z,5.00
2022-09-21T07:42:25.786Z,6.72
2022-09-21T07:45:03.376Z,5.78
2022-09-21T07:47:32.193Z,4.70
2022-09-21T07:50:00.195Z,4.85
2022-09-21T07:52:28.981Z,5.35
2022-09-21T07:54:56.972Z,5.65
2022-09-21T07:57:43.703Z,5.03
2022-09-21T08:00:13.897Z,4.70
2022-09-21T08:02:47.326Z,4.40
2022-09-21T08:05:16.122Z,4.72
2022-09-21T08:07:44.221Z,3.92
2022-09-21T08:10:12.553Z,4.28
2022-09-21T08:12:43.840Z,4.88
2022-09-21T08:15:30.693Z,5.35
2022-09-21T08:18:02.734Z,4.80
2022-09-21T08:20:30.734Z,4.85
2022-09-21T08:23:00.030Z,2.75
2022-09-21T08:25:28.243Z,2.50
2022-09-21T08:28:00.488Z,3.65
2022-09-21T08:30:31.015Z,3.40
2022-09-21T08:32:59.169Z,3.13
2022-09-21T08:35:27.257Z,2.92
2022-09-21T08:37:55.479Z,3.00
2022-09-21T08:40:23.865Z,2.85
2022-09-21T08:43:01.893Z,2.63
2022-09-21T08:45:34.725Z,2.25
2022-09-21T08:48:06.876Z,1.63
2022-09-21T08:50:40.900Z,2.28
2022-09-21T08:53:14.444Z,1.88
2022-09-21T08:55:42.544Z,1.80
2022-09-21T08:58:23.881Z,1.60
2022-09-21T09:01:06.900Z,1.85
2022-09-21T09:03:54.780Z,1.70
2022-09-21T09:06:31.649Z,1.90
2022-09-21T09:09:13.587Z,2.50
2022-09-21T09:12:11.651Z,2.47
2022-09-21T09:15:02.528Z,3.00
2022-09-21T09:17:43.723Z,3.05
2022-09-21T09:20:16.464Z,1.95
2022-09-21T09:22:48.308Z,1.80
2022-09-21T09:25:19.991Z,1.92
2022-09-21T09:27:51.525Z,1.67
2022-09-21T09:30:24.654Z,2.00
2022-09-21T09:33:01.291Z,1.65
2022-09-21T09:35:33.147Z,1.98
2022-09-21T09:38:11.926Z,2.13
2022-09-21T09:40:58.232Z,1.70
2022-09-21T09:43:40.973Z,1.70
2022-09-21T09:46:15.220Z,1.70
2022-09-21T09:49:08.148Z,1.73
2022-09-21T09:51:37.523Z,1.67
2022-09-21T09:54:10.129Z,1.80
2022-09-21T09:56:38.334Z,1.27
2022-09-21T09:59:11.541Z,1.48
2022-09-21T10:01:43.392Z,1.08
2022-09-21T10:04:12.924Z,0.73
2022-09-21T10:06:46.014Z,1.02
2022-09-21T10:09:26.416Z,1.50
2022-09-21T10:11:58.827Z,1.30
2022-09-21T10:14:30.506Z,1.70
2022-09-21T10:17:06.588Z,1.73
2022-09-21T10:19:34.956Z,1.48
2022-09-21T10:22:05.095Z,1.45
2022-09-21T10:24:35.601Z,1.00
2022-09-21T10:27:07.338Z,1.20
2022-09-21T10:29:43.831Z,1.25
2022-09-21T10:32:26.374Z,1.20
2022-09-21T10:35:15.840Z,1.08
2022-09-21T10:37:46.317Z,1.40
2022-09-21T10:40:26.199Z,1.33
2022-09-21T10:42:58.479Z,1.20
2022-09-21T10:45:27.857Z,1.30
2022-09-21T10:47:59.809Z,1.05
2022-09-21T10:50:30.362Z,0.85
2022-09-21T10:53:01.638Z,1.10
2022-09-21T10:55:32.027Z,0.93
2022-09-21T10:58:00.745Z,1.02
2022-09-21T11:00:35.587Z,1.08
2022-09-21T11:03:41.523Z,1.10
2022-09-21T11:06:16.097Z,0.80
2022-09-21T11:08:51.072Z,0.80
2022-09-21T11:11:33.613Z,0.98
2022-09-21T11:14:11.498Z,1.40
2022-09-21T11:16:44.663Z,1.05
2022-09-21T11:19:22.212Z,1.20
2022-09-21T11:21:57.180Z,1.60
2022-09-21T11:24:33.709Z,0.70
2022-09-21T11:27:09.179Z,0.70
2022-09-21T11:29:47.154Z,0.65
2022-09-21T11:32:41.608Z,0.77
2022-09-21T11:35:26.881Z,1.30
2022-09-21T11:38:10.488Z,0.45
2022-09-21T11:41:00.628Z,0.52
2022-09-21T11:43:44.688Z,0.90
2022-09-21T11:46:23.930Z,0.80
2022-09-21T11:49:09.605Z,1.08
2022-09-21T11:51:55.905Z,0.68
2022-09-21T11:54:51.848Z,0.90
2022-09-21T11:57:25.306Z,0.50
2022-09-21T12:00:11.574Z,0.40
2022-09-21T12:02:55.455Z,0.75
2022-09-21T12:05:27.876Z,0.30
2022-09-21T12:08:21.496Z,0.50
2022-09-21T12:10:59.349Z,0.57
2022-09-21T12:13:36.097Z,0.50
2022-09-21T12:16:10.007Z,0.55
2022-09-21T12:18:45.483Z,0.65
2022-09-21T12:21:19.059Z,0.60
2022-09-21T12:23:53.872Z,0.77
2022-09-21T12:26:28.142Z,0.70
2022-09-21T12:29:00.982Z,1.05
2022-09-21T12:31:36.632Z,2.70
2022-09-21T12:34:11.021Z,1.70
2022-09-21T12:36:42.625Z,1.13
2022-09-21T12:39:19.753Z,1.05
2022-09-21T12:41:53.752Z,0.80
2022-09-21T12:44:26.960Z,0.80
2022-09-21T12:47:09.409Z,1.10
2022-09-21T12:49:42.607Z,0.60
2022-09-21T12:52:16.009Z,1.00
2022-09-21T12:54:49.332Z,0.88
2022-09-21T12:57:45.634Z,0.85
2022-09-21T13:00:17.421Z,0.60
2022-09-21T13:02:51.552Z,0.73
2022-09-21T13:05:31.276Z,0.70
2022-09-21T13:08:09.244Z,1.08
2022-09-21T13:10:49.153Z,0.90
2022-09-21T13:13:30.046Z,0.80
2022-09-21T13:15:59.192Z,0.73
2022-09-21T13:18:35.845Z,0.55
2022-09-21T13:21:18.146Z,0.73
2022-09-21T13:23:56.207Z,0.90
2022-09-21T13:26:34.625Z,1.10
2022-09-21T13:29:19.895Z,0.82
2022-09-21T13:31:59.673Z,1.10
2022-09-21T13:34:31.739Z,0.63
2022-09-21T13:37:31.293Z,0.70
2022-09-21T13:40:39.027Z,0.80
2022-09-21T13:43:24.366Z,0.80
2022-09-21T13:45:58.170Z,0.80
2022-09-21T13:48:30.222Z,1.00
2022-09-21T13:51:01.643Z,0.90
2022-09-21T13:53:39.910Z,0.70
2022-09-21T13:56:20.235Z,0.98
2022-09-21T13:58:53.086Z,0.85
2022-09-21T14:01:45.803Z,0.75
2022-09-21T14:04:21.084Z,0.60
2022-09-21T14:06:52.472Z,0.85
2022-09-21T14:09:25.598Z,0.90
2022-09-21T14:11:59.668Z,0.65
2022-09-21T14:14:34.171Z,0.45
2022-09-21T14:17:03.610Z,0.73
2022-09-21T14:20:07.932Z,0.77
2022-09-21T14:22:40.815Z,1.08
2022-09-21T14:25:28.250Z,0.93
2022-09-21T14:28:01.882Z,1.10
2022-09-21T14:30:35.437Z,0.77
2022-09-21T14:33:25.414Z,0.80
2022-09-21T14:35:55.097Z,0.52
2022-09-21T14:38:26.602Z,0.68
2022-09-21T14:41:00.411Z,0.70
2022-09-21T14:43:33.781Z,0.40
2022-09-21T14:46:17.098Z,0.70
2022-09-21T14:48:59.117Z,0.88
2022-09-21T14:51:38.143Z,0.70
2022-09-21T14:54:22.765Z,0.77
2022-09-21T14:57:10.900Z,0.70
2022-09-21T14:59:55.584Z,0.80
2022-09-21T15:02:27.970Z,0.70
2022-09-21T15:05:04.881Z,0.60
2022-09-21T15:07:58.859Z,0.52
2022-09-21T15:10:50.815Z,0.63
2022-09-21T15:13:53.401Z,0.70
2022-09-21T15:16:45.622Z,0.80
2022-09-21T15:19:22.815Z,0.90
2022-09-21T15:21:52.674Z,0.60
2022-09-21T15:24:26.737Z,0.80
2022-09-21T15:27:02.813Z,1.02
2022-09-21T15:29:32.617Z,0.98
2022-09-21T15:32:02.177Z,0.68
2022-09-21T15:34:32.034Z,0.85
2022-09-21T15:37:16.222Z,0.85
2022-09-21T15:39:44.305Z,1.52
2022-09-21T15:42:22.447Z,1.08
2022-09-21T15:44:55.244Z,0.93
2022-09-21T15:47:26.004Z,0.73
2022-09-21T15:49:56.849Z,1.48
2022-09-21T15:52:31.530Z,1.40
2022-09-21T15:55:02.760Z,1.35
2022-09-21T15:57:38.873Z,1.00
2022-09-21T16:00:19.911Z,1.08
2022-09-21T16:03:07.516Z,1.00
2022-09-21T16:05:46.841Z,0.85
2022-09-21T16:08:30.908Z,1.40
2022-09-21T16:11:19.803Z,0.90
2022-09-21T16:14:06.613Z,0.70
2022-09-21T16:16:54.771Z,1.02
2022-09-21T16:19:42.118Z,1.33
2022-09-21T16:22:14.776Z,0.93
2022-09-21T16:24:46.195Z,1.17
2022-09-21T16:27:18.482Z,1.10
2022-09-21T16:29:49.675Z,1.17
2022-09-21T16:32:28.969Z,0.90
2022-09-21T16:35:25.220Z,0.90
2022-09-21T16:37:58.697Z,1.35
2022-09-21T16:40:27.449Z,1.15
2022-09-21T16:42:56.036Z,0.60
2022-09-21T16:45:27.123Z,0.70
2022-09-21T16:47:56.209Z,0.90
2022-09-21T16:50:24.722Z,1.05
2022-09-21T16:52:54.168Z,0.80
2022-09-21T16:55:28.225Z,0.65
2022-09-21T16:57:57.160Z,0.65
2022-09-21T17:00:25.210Z,0.75
2022-09-21T17:02:53.322Z,0.60
2022-09-21T17:05:21.624Z,0.75
2022-09-21T17:07:53.201Z,0.85
2022-09-21T17:10:27.305Z,0.90
2022-09-21T17:12:55.468Z,0.50
2022-09-21T17:15:24.375Z,1.00
2022-09-21T17:17:52.744Z,0.95
2022-09-21T17:20:26.422Z,0.80
2022-09-21T17:22:54.478Z,0.70
2022-09-21T17:25:23.806Z,0.63
2022-09-21T17:27:53.037Z,0.63
2022-09-21T17:30:21.846Z,1.73
2022-09-21T17:32:49.996Z,1.15
2022-09-21T17:35:30.528Z,0.88
2022-09-21T17:37:58.794Z,1.17
2022-09-21T17:40:29.825Z,1.08
2022-09-21T17:43:15.022Z,2.30
2022-09-21T17:45:46.797Z,1.40
2022-09-21T17:48:20.389Z,1.10
2022-09-21T17:50:49.372Z,1.27
2022-09-21T17:53:37.170Z,1.15
2022-09-21T17:56:25.613Z,1.40
2022-09-21T17:59:01.655Z,1.23
2022-09-21T18:01:34.885Z,1.50
2022-09-21T18:04:03.876Z,1.52
2022-09-21T18:06:32.699Z,1.23
2022-09-21T18:09:01.571Z,1.42
2022-09-21T18:12:08.192Z,1.60
2022-09-21T18:14:46.664Z,1.67
2022-09-21T18:17:39.243Z,1.50
2022-09-21T18:20:30.416Z,1.60
2022-09-21T18:23:07.193Z,1.15
2022-09-21T18:25:47.422Z,1.40
2022-09-21T18:28:23.526Z,1.40
2022-09-21T18:31:00.355Z,1.30
2022-09-21T18:33:40.442Z,1.98
2022-09-21T18:36:20.540Z,2.10
2022-09-21T18:38:58.774Z,3.25
2022-09-21T18:41:34.215Z,2.15
2022-09-21T18:44:13.009Z,2.42
2022-09-21T18:46:51.944Z,2.35
2022-09-21T18:49:48.219Z,3.55
2022-09-21T18:52:27.389Z,3.53
2022-09-21T18:54:55.586Z,4.28
2022-09-21T18:57:24.051Z,5.57
2022-09-21T18:59:54.043Z,4.72
2022-09-21T19:02:22.719Z,4.70
2022-09-21T19:04:51.254Z,4.43
2022-09-21T19:07:28.799Z,6.60
2022-09-21T19:10:08.393Z,4.05
2022-09-21T19:12:56.271Z,4.47
2022-09-21T19:15:58.590Z,4.50
2022-09-21T19:18:30.439Z,5.57
2022-09-21T19:21:08.212Z,6.10
2022-09-21T19:23:45.253Z,5.45
2022-09-21T19:26:19.342Z,5.10
2022-09-21T19:29:15.934Z,4.97
2022-09-21T19:31:45.658Z,4.93
2022-09-21T19:34:16.685Z,4.80
2022-09-21T19:36:47.157Z,4.50
2022-09-21T19:39:15.751Z,4.78
2022-09-21T19:41:56.953Z,5.15
2022-09-21T19:44:58.385Z,6.97
2022-09-21T19:47:30.412Z,7.10
2022-09-21T19:50:11.196Z,8.18
2022-09-21T19:52:39.743Z,8.70
2022-09-21T19:55:32.353Z,7.40
2022-09-21T19:58:18.317Z,8.80
2022-09-21T20:00:48.153Z,7.75
2022-09-21T20:03:25.222Z,8.38
2022-09-21T20:06:02.752Z,8.00
2022-09-21T20:08:35.135Z,7.95
2022-09-21T20:11:07.940Z,8.55
2022-09-21T20:13:57.746Z,8.38
2022-09-21T20:16:40.206Z,8.43
2022-09-21T20:19:20.949Z,7.80
2022-09-21T20:21:54.612Z,7.82
2022-09-21T20:24:27.827Z,7.72
2022-09-21T20:26:56.102Z,6.35
2022-09-21T20:29:24.334Z,7.22
2022-09-21T20:31:53.732Z,7.35
2022-09-21T20:34:23.092Z,7.50
2022-09-21T20:36:51.197Z,8.02
2022-09-21T20:39:19.157Z,7.82
2022-09-21T20:41:47.154Z,7.25
2022-09-21T20:44:15.420Z,5.95
2022-09-21T20:46:43.441Z,6.38
2022-09-21T20:49:16.265Z,5.95
2022-09-21T20:51:45.875Z,4.82
2022-09-21T20:54:13.928Z,5.50
2022-09-21T20:56:41.937Z,5.57
2022-09-21T20:59:09.960Z,4.43
2022-09-21T21:01:37.994Z,4.60
2022-09-21T21:04:06.068Z,4.60
2022-09-21T21:06:34.909Z,4.82
2022-09-21T21:09:04.309Z,5.20
2022-09-21T21:11:33.086Z,5.88
2022-09-21T21:14:01.397Z,6.00
2022-09-21T21:16:29.402Z,5.75
2022-09-21T21:18:57.532Z,5.82
2022-09-21T21:21:25.756Z,5.72
2022-09-21T21:24:11.644Z,5.00
2022-09-21T21:29:28.960Z,6.50
2022-09-21T21:31:57.073Z,6.78
2022-09-21T21:34:25.285Z,6.10
2022-09-21T21:36:54.210Z,6.78
2022-09-21T21:39:22.288Z,5.70
2022-09-21T21:41:51.703Z,5.55
2022-09-21T21:44:19.705Z,4.63
2022-09-21T21:46:47.904Z,5.75
2022-09-21T21:49:16.140Z,3.67
2022-09-21T21:51:44.785Z,4.63
2022-09-21T21:54:12.817Z,5.80
2022-09-21T21:56:40.816Z,5.25
2022-09-21T21:59:14.189Z,4.43
2022-09-21T22:01:45.423Z,4.72
2022-09-21T22:04:14.181Z,3.20
2022-09-21T22:06:42.234Z,3.28
2022-09-21T22:09:12.109Z,3.63
2022-09-21T22:11:40.322Z,4.05
2022-09-21T22:14:11.551Z,3.53
2022-09-21T22:16:39.706Z,3.92
2022-09-21T22:19:09.193Z,3.92
2022-09-21T22:21:41.243Z,3.83
2022-09-21T22:24:10.918Z,3.88
2022-09-21T22:26:41.096Z,4.10
2022-09-21T22:29:13.109Z,4.50
2022-09-21T22:31:42.905Z,3.80
2022-09-21T22:34:12.464Z,4.97
2022-09-21T22:36:43.438Z,4.72
2022-09-21T22:39:12.340Z,4.80
2022-09-21T22:41:42.078Z,4.90
2022-09-21T22:44:12.241Z,3.75
2022-09-21T22:46:40.976Z,3.63
2022-09-21T22:49:09.541Z,4.90
2022-09-21T22:51:37.966Z,4.32
2022-09-21T22:54:06.296Z,4.18
2022-09-21T22:56:34.996Z,4.07
2022-09-21T22:59:05.871Z,3.75
2022-09-21T23:01:37.438Z,4.10
2022-09-21T23:04:07.438Z,4.25
2022-09-21T23:06:37.693Z,3.88
2022-09-21T23:09:09.048Z,3.17
2022-09-21T23:11:38.777Z,2.95
2022-09-21T23:14:07.050Z,2.70
2022-09-21T23:16:36.677Z,3.28
2022-09-21T23:19:04.721Z,3.17
2022-09-21T23:21:32.718Z,3.25
2022-09-21T23:24:02.470Z,3.55
2022-09-21T23:26:33.006Z,3.35
2022-09-21T23:29:02.702Z,3.70
2022-09-21T23:31:32.424Z,2.97
2022-09-21T23:34:07.281Z,2.95
2022-09-21T23:36:36.765Z,3.13
2022-09-21T23:39:06.787Z,3.10
2022-09-21T23:41:36.520Z,2.90
2022-09-21T23:44:05.617Z,2.85
2022-09-21T23:46:35.343Z,3.28
2022-09-21T23:49:05.308Z,4.75
2022-09-21T23:51:33.620Z,4.30
2022-09-21T23:54:01.711Z,4.68
2022-09-21T23:56:30.331Z,5.00
2022-09-21T23:58:58.822Z,3.92
